createdAt,value
2023-04-16T00:01:06.253Z,100199.0033459215
2023-04-16T00:04:03.089Z,100197.49517234073
2023-04-16T00:07:00.380Z,100190.10112257022
2023-04-16T00:09:55.939Z,100190.70543876407
2023-04-16T00:12:54.479Z,100188.81922924383
2023-04-16T00:15:53.040Z,100195.88438212496
2023-04-16T00:18:52.596Z,100193.44355674212
2023-04-16T00:21:52.198Z,100193.09129864554
2023-04-16T00:24:52.729Z,100183.23974476593
2023-04-16T00:27:52.220Z,100187.53482976927
2023-04-16T00:30:50.840Z,100181.33647736402
2023-04-16T00:33:49.342Z,100181.86803697546
2023-04-16T00:36:44.937Z,100173.80827708507
2023-04-16T00:39:40.478Z,100170.26286520356
2023-04-16T00:42:38.107Z,100178.6801029932
2023-04-16T00:45:34.582Z,100181.1154317143
2023-04-16T00:48:36.126Z,100189.43503603205
2023-04-16T00:51:32.648Z,100181.27861793624
2023-04-16T00:54:32.211Z,100184.55059148412
2023-04-16T00:57:30.806Z,100190.26257192926
2023-04-16T01:00:29.388Z,100190.45469127949
2023-04-16T01:03:32.087Z,100186.02170755452
2023-04-16T01:06:30.481Z,100188.53628829487
2023-04-16T01:09:28.000Z,100189.68407177484
2023-04-16T01:12:23.568Z,100187.5107227536
2023-04-16T01:15:21.177Z,100190.07653294981
2023-04-16T01:18:18.655Z,100187.6024785902
2023-04-16T01:21:16.238Z,100190.40968393818
2023-04-16T01:24:13.854Z,100184.66929694789
2023-04-16T01:27:11.355Z,100182.70638716684
2023-04-16T01:30:07.931Z,100181.21200262202
2023-04-16T01:33:04.465Z,100178.27859373597
2023-04-16T01:36:01.028Z,100162.8450897433
2023-04-16T01:38:57.617Z,100165.84886958935
2023-04-16T01:41:54.145Z,100162.98290022285
2023-04-16T01:44:54.653Z,100157.73956726142
2023-04-16T01:47:52.321Z,100161.09610894677
2023-04-16T01:50:48.831Z,100155.36194814323
2023-04-16T01:53:44.329Z,100153.77653089746
2023-04-16T01:56:42.945Z,100158.29854271626
2023-04-16T01:59:38.514Z,100155.15173794306
2023-04-16T02:02:40.162Z,100157.08702030002
2023-04-16T02:05:37.595Z,100151.6320313844
2023-04-16T02:08:34.180Z,100158.34476886068
2023-04-16T02:11:31.750Z,100156.03754603094
2023-04-16T02:14:27.256Z,100150.44331436843
2023-04-16T02:17:22.856Z,100151.16389208284
2023-04-16T02:20:20.378Z,100138.5268229656
2023-04-16T02:23:15.926Z,100143.57628492021
2023-04-16T02:26:13.504Z,100139.03518521816
2023-04-16T02:29:09.280Z,100143.03845686853
2023-04-16T02:32:04.674Z,100134.58911994957
2023-04-16T02:35:03.200Z,100136.01341925056
2023-04-16T02:37:58.715Z,100141.53367882202
2023-04-16T02:40:54.319Z,100136.33026889351
2023-04-16T02:43:50.912Z,100141.17161658777
2023-04-16T02:46:46.443Z,100139.09091102896
2023-04-16T02:49:41.983Z,100137.18332007973
2023-04-16T02:52:37.559Z,100141.37822569131
2023-04-16T02:55:33.157Z,100138.18325726835
2023-04-16T02:58:28.688Z,100136.20711089444
2023-04-16T03:01:24.271Z,100134.68333332945
2023-04-16T03:04:19.797Z,100138.96266119118
2023-04-16T03:07:17.378Z,100142.71207203928
2023-04-16T03:10:13.899Z,100141.37822569131
2023-04-16T03:13:10.470Z,100133.15915561917
2023-04-16T03:16:08.066Z,100135.42678216426
2023-04-16T03:19:03.540Z,100134.59135526611
2023-04-16T03:21:59.153Z,100139.66199724263
2023-04-16T03:24:54.675Z,100132.41925992981
2023-04-16T03:27:50.265Z,100136.01662747319
2023-04-16T03:30:50.879Z,100119.81425643143
2023-04-16T03:33:47.363Z,100126.01064356518
2023-04-16T03:36:42.977Z,100131.14497189129
2023-04-16T03:39:38.517Z,100124.10276960062
2023-04-16T03:42:36.046Z,100143.20828738192
2023-04-16T03:45:32.660Z,100146.40870663141
2023-04-16T03:48:28.180Z,100153.59750583359
2023-04-16T03:51:24.741Z,100150.88721680384
2023-04-16T03:54:22.867Z,100153.10162378203
2023-04-16T03:57:18.851Z,100153.64416209223
2023-04-16T04:00:14.397Z,100150.88062749353
2023-04-16T04:03:12.184Z,100163.04258520015
2023-04-16T04:06:08.530Z,100161.41917404482
2023-04-16T04:09:04.104Z,100168.76411462545
2023-04-16T04:11:59.686Z,100173.54100956673
2023-04-16T04:14:56.198Z,100171.96309557519
2023-04-16T04:17:52.816Z,100172.84507010426
2023-04-16T04:20:48.346Z,100173.67529700616
2023-04-16T04:23:43.905Z,100171.63075204675
2023-04-16T04:26:40.450Z,100180.72639977695
2023-04-16T04:29:35.998Z,100182.68494604451
2023-04-16T04:32:32.616Z,100189.29263463183
2023-04-16T04:35:28.126Z,100189.25209159014
2023-04-16T04:38:24.704Z,100189.28547189108
2023-04-16T04:41:21.257Z,100194.02559699734
2023-04-16T04:44:17.836Z,100198.5588229454
2023-04-16T04:47:13.369Z,100195.36221325578
2023-04-16T04:50:09.943Z,100204.91737339228
2023-04-16T04:53:09.506Z,100209.89345828358
2023-04-16T04:59:06.600Z,100210.48357414243
2023-04-16T05:02:03.220Z,100213.39105206465
2023-04-16T05:04:59.731Z,100213.82950461388
2023-04-16T05:07:55.230Z,100215.90313415264
2023-04-16T05:10:51.831Z,100221.17446745271
2023-04-16T05:13:47.366Z,100223.83535323695
2023-04-16T05:16:43.008Z,100225.72872016838
2023-04-16T05:19:38.486Z,100225.9940961762
2023-04-16T05:22:34.090Z,100229.49218188379
2023-04-16T05:25:29.643Z,100228.92794126926
2023-04-16T05:28:25.184Z,100236.09386493858
2023-04-16T05:31:20.883Z,100232.44360532546
2023-04-16T05:34:17.305Z,100235.9903451898
2023-04-16T05:37:13.870Z,100239.3916927124
2023-04-16T05:40:10.423Z,100238.44911077397
2023-04-16T05:43:05.973Z,100241.15669285571
2023-04-16T05:46:02.580Z,100248.10649145894
2023-04-16T05:48:59.136Z,100244.02693034078
2023-04-16T05:51:56.671Z,100244.62119041619
2023-04-16T05:54:52.192Z,100249.09884305642
2023-04-16T05:57:47.756Z,100255.59586125061
2023-04-16T06:00:43.324Z,100250.44238587824
2023-04-16T06:03:39.080Z,100258.17726226366
2023-04-16T06:06:34.510Z,100256.02914362228
2023-04-16T06:09:30.088Z,100258.30189036224
2023-04-16T06:12:25.554Z,100258.92542548671
2023-04-16T06:15:21.156Z,100260.91893153828
2023-04-16T06:18:16.700Z,100262.77725960831
2023-04-16T06:21:12.283Z,100268.75516484168
2023-04-16T06:24:07.843Z,100261.63370943726
2023-04-16T06:27:03.380Z,100262.34729677212
2023-04-16T06:29:58.960Z,100257.83068083353
2023-04-16T06:32:54.566Z,100256.83077066056
2023-04-16T06:35:52.082Z,100253.44285583128
2023-04-16T06:38:47.621Z,100258.11705438944
2023-04-16T06:41:43.155Z,100265.05276110163
2023-04-16T06:44:38.764Z,100257.12646298257
2023-04-16T06:47:34.325Z,100263.02464173308
2023-04-16T06:50:30.888Z,100258.5193391999
2023-04-16T06:53:26.457Z,100256.13700437764
2023-04-16T06:56:21.982Z,100262.85745773184
2023-04-16T06:59:17.536Z,100263.12102114945
2023-04-16T07:02:13.333Z,100266.7307834339
2023-04-16T07:05:09.668Z,100263.84689116133
2023-04-16T07:08:06.228Z,100260.53966286355
2023-04-16T07:11:02.829Z,100260.50100129055
2023-04-16T07:13:59.416Z,100257.88844809176
2023-04-16T07:16:55.025Z,100262.82540214072
2023-04-16T07:19:51.491Z,100264.33740738736
2023-04-16T07:22:48.025Z,100269.85051927509
2023-04-16T07:25:44.541Z,100276.1481623939
2023-04-16T07:28:41.171Z,100273.51880940371
2023-04-16T07:31:38.781Z,100274.63401256844
2023-04-16T07:34:34.303Z,100277.64785796271
2023-04-16T07:37:30.841Z,100271.47081016134
2023-04-16T07:40:29.337Z,100268.47110489568
2023-04-16T07:43:25.933Z,100274.05073970147
2023-04-16T07:46:21.847Z,100276.94677542201
2023-04-16T07:49:18.047Z,100276.6498486246
2023-04-16T07:52:14.665Z,100278.46976957623
2023-04-16T07:55:10.165Z,100277.63320713844
2023-04-16T07:58:07.737Z,100280.17022885005
2023-04-16T08:01:04.325Z,100282.3278189528
2023-04-16T08:04:00.069Z,100278.36849387053
2023-04-16T08:06:55.471Z,100275.27699623865
2023-04-16T08:09:52.959Z,100283.572319982
2023-04-16T08:12:49.555Z,100274.64485929377
2023-04-16T08:15:46.158Z,100277.80584992592
2023-04-16T08:18:46.633Z,100282.10091960346
2023-04-16T08:21:43.205Z,100283.66444119165
2023-04-16T08:24:38.785Z,100278.24732549516
2023-04-16T08:27:34.345Z,100284.43515905477
2023-04-16T08:30:30.913Z,100278.42630004631
2023-04-16T08:33:26.422Z,100272.3667091602
2023-04-16T08:36:23.000Z,100275.01367381513
2023-04-16T08:39:19.580Z,100280.01700158489
2023-04-16T08:42:23.156Z,100279.98811228738
2023-04-16T08:45:19.684Z,100282.07348799253
2023-04-16T08:48:20.200Z,100291.13977594394
2023-04-16T08:51:16.834Z,100294.61301531336
2023-04-16T08:54:24.309Z,100294.54805644575
2023-04-16T08:57:22.846Z,100300.10303516572
2023-04-16T09:00:24.406Z,100303.00748156197
2023-04-16T09:03:23.066Z,100300.15681751828
2023-04-16T09:06:19.512Z,100297.91245209274
2023-04-16T09:09:18.064Z,100305.89335696309
2023-04-16T09:12:15.625Z,100304.61155891715
2023-04-16T09:15:14.203Z,100316.72906772893
2023-04-16T09:18:11.715Z,100323.01907368885
2023-04-16T09:21:09.275Z,100323.19198416056
2023-04-16T09:24:05.871Z,100328.02330056319
2023-04-16T09:27:02.439Z,100329.37158826395
2023-04-16T09:30:12.092Z,100324.37531502258
2023-04-16T09:33:13.526Z,100316.39320980542
2023-04-16T09:36:21.195Z,100316.67754233867
2023-04-16T09:39:19.562Z,100314.63631069563
2023-04-16T09:42:21.143Z,100316.33153683164
2023-04-16T09:45:16.914Z,100314.595326344
2023-04-16T09:48:13.253Z,100315.06250914211
2023-04-16T09:51:08.799Z,100310.37558923308
2023-04-16T09:54:06.399Z,100305.0138937652
2023-04-16T09:57:02.923Z,100305.8250870513
2023-04-16T10:00:04.450Z,100315.47262179587
2023-04-16T10:03:05.113Z,100313.36499966243
2023-04-16T10:06:06.552Z,100317.40806598122
2023-04-16T10:09:07.122Z,100316.10792106297
2023-04-16T10:12:03.666Z,100315.49078362357
2023-04-16T10:14:59.242Z,100316.33936383064
2023-04-16T10:17:57.805Z,100316.76902385087
2023-04-16T10:20:55.374Z,100315.46873326412
2023-04-16T10:23:52.917Z,100307.23932917502
2023-04-16T10:26:51.413Z,100302.58690587326
2023-04-16T10:29:49.029Z,100295.59218927543
2023-04-16T10:32:46.612Z,100293.86609083899
2023-04-16T10:35:52.362Z,100287.23397581576
2023-04-16T10:38:57.586Z,100282.30347609194
2023-04-16T10:42:02.170Z,100290.55304042486
2023-04-16T10:44:59.743Z,100288.85910161417
2023-04-16T10:47:57.369Z,100291.27707685351
2023-04-16T10:50:56.833Z,100290.34693200204
2023-04-16T10:57:04.961Z,100292.50530733287
2023-04-16T11:00:08.412Z,100299.51685623608
2023-04-16T11:03:05.175Z,100311.3782882191
2023-04-16T11:06:12.538Z,100310.22861284432
2023-04-16T11:09:13.189Z,100304.66593500237
2023-04-16T11:12:12.661Z,100310.74375765264
2023-04-16T11:15:09.176Z,100307.50626249696
2023-04-16T11:18:09.861Z,100304.15392279382
2023-04-16T11:21:08.334Z,100303.2963577162
2023-04-16T11:24:12.858Z,100301.83688429576
2023-04-16T11:27:08.400Z,100301.7441417778
2023-04-16T11:30:06.952Z,100300.92859308295
2023-04-16T11:33:05.522Z,100294.11038720462
2023-04-16T11:36:02.102Z,100305.80648035045
2023-04-16T11:39:07.591Z,100302.14914400638
2023-04-16T11:42:03.223Z,100300.70940726895
2023-04-16T11:45:00.752Z,100300.67460205691
2023-04-16T11:47:57.358Z,100292.75402130296
2023-04-16T11:50:55.801Z,100296.64261563747
2023-04-16T11:53:52.451Z,100289.5086803776
2023-04-16T11:56:49.956Z,100287.35037227733
2023-04-16T12:00:02.208Z,100290.72793700545
2023-04-16T12:02:51.322Z,100275.76547429991
2023-04-16T12:06:01.572Z,100271.46829673459
2023-04-16T12:09:06.128Z,100269.6736508692
2023-04-16T12:12:20.605Z,100251.54613818263
2023-04-16T12:15:22.146Z,100253.67578215014
2023-04-16T12:18:18.740Z,100251.16212322672
2023-04-16T12:21:15.316Z,100249.4009150231
2023-04-16T12:24:12.869Z,100249.8570091981
2023-04-16T12:27:10.445Z,100256.19912839665
2023-04-16T12:30:07.028Z,100253.10401737581
2023-04-16T12:33:12.558Z,100250.55474175447
2023-04-16T12:36:18.075Z,100239.72663292842
2023-04-16T12:39:14.624Z,100249.75234828187
2023-04-16T12:42:12.180Z,100244.31369008527
2023-04-16T12:45:08.683Z,100245.86304386053
2023-04-16T12:48:05.352Z,100245.46122488672
2023-04-16T12:51:02.826Z,100236.5233296044
2023-04-16T12:53:59.398Z,100240.64311038316
2023-04-16T12:56:55.994Z,100239.51937438695
2023-04-16T12:59:52.518Z,100234.75177570133
2023-04-16T13:02:48.237Z,100229.30595706333
2023-04-16T13:05:45.613Z,100226.77327966702
2023-04-16T13:08:42.191Z,100226.77327966702
2023-04-16T13:11:38.694Z,100232.5799483267
2023-04-16T13:14:36.328Z,100227.65425090697
2023-04-16T13:17:32.826Z,100242.82300828352
2023-04-16T13:20:28.431Z,100259.32938246297
2023-04-16T13:23:23.978Z,100266.76928093808
2023-04-16T13:26:21.535Z,100264.54510797538
2023-04-16T13:29:17.134Z,100276.9618777721
2023-04-16T13:32:14.674Z,100273.52526973083
2023-04-16T13:35:11.204Z,100271.79087541132
2023-04-16T13:38:07.817Z,100263.75930631183
2023-04-16T13:41:04.331Z,100251.79626969382
2023-04-16T13:44:00.911Z,100246.2214989413
2023-04-16T13:46:58.496Z,100247.74309595833
2023-04-16T13:49:55.016Z,100236.56998958332
2023-04-16T13:52:50.549Z,100230.10177039524
2023-04-16T13:55:51.098Z,100218.7566298304
2023-04-16T13:58:48.689Z,100215.18384040704
2023-04-16T14:01:44.276Z,100220.98378903487
2023-04-16T14:04:39.921Z,100229.15495698575
2023-04-16T14:07:37.355Z,100227.68053342613
2023-04-16T14:10:32.911Z,100231.39308591702
2023-04-16T14:13:29.481Z,100231.27862879375
2023-04-16T14:16:27.039Z,100233.80554349301
2023-04-16T14:19:23.586Z,100243.57366957661
2023-04-16T14:22:19.133Z,100237.65650554509
2023-04-16T14:25:14.674Z,100236.22102695021
2023-04-16T14:28:12.245Z,100237.0433549213
2023-04-16T14:31:09.131Z,100238.83917715432
2023-04-16T14:34:04.365Z,100236.7092150432
2023-04-16T14:37:03.975Z,100230.8068997143
2023-04-16T14:40:00.503Z,100230.98485146955
2023-04-16T14:42:56.038Z,100226.93210212134
2023-04-16T14:45:52.873Z,100224.99637188691
2023-04-16T14:48:48.186Z,100222.34617928299
2023-04-16T14:51:45.714Z,100224.87714140913
2023-04-16T14:54:41.295Z,100215.81511770334
2023-04-16T14:57:38.864Z,100220.90600437345
2023-04-16T15:00:40.368Z,100215.61127906149
2023-04-16T15:03:38.106Z,100213.02347150241
2023-04-16T15:06:36.009Z,100203.14021238337
2023-04-16T15:09:34.077Z,100209.0514998863
2023-04-16T15:12:31.630Z,100202.93317861523
2023-04-16T15:15:27.185Z,100201.6211155551
2023-04-16T15:18:24.852Z,100204.11784448988
2023-04-16T15:21:21.319Z,100198.63451222384
2023-04-16T15:24:16.824Z,100191.57851100936
2023-04-16T15:27:14.408Z,100189.40129135708
2023-04-16T15:30:11.994Z,100189.42820956545
2023-04-16T15:33:08.551Z,100188.50078075066
2023-04-16T15:36:06.071Z,100189.75447055178
2023-04-16T15:39:02.645Z,100192.90111732254
2023-04-16T15:42:02.991Z,100198.02379254223
2023-04-16T15:45:02.710Z,100200.4713221523
2023-04-16T15:47:58.371Z,100197.18507613803
2023-04-16T15:50:54.844Z,100196.00290212061
2023-04-16T15:53:51.410Z,100189.86248401063
2023-04-16T15:56:48.964Z,100194.79316128636
2023-04-16T16:00:03.192Z,100190.03268435068
2023-04-16T16:02:48.255Z,100194.11344173843
2023-04-16T16:05:46.687Z,100192.5391639081
2023-04-16T16:08:43.193Z,100191.24410468328
2023-04-16T16:11:40.764Z,100190.96289179417
2023-04-16T16:14:36.328Z,100192.99837153847
2023-04-16T16:17:32.864Z,100191.39032095706
2023-04-16T16:20:29.460Z,100196.04927050047
2023-04-16T16:23:25.973Z,100192.58102393866
2023-04-16T16:26:23.557Z,100197.28689771295
2023-04-16T16:29:20.115Z,100186.81636383758
2023-04-16T16:32:16.676Z,100192.49273154528
2023-04-16T16:35:12.232Z,100195.2281051413
2023-04-16T16:38:09.791Z,100200.72367528063
2023-04-16T16:41:06.364Z,100204.99239652487
2023-04-16T16:44:02.890Z,100207.16311701528
2023-04-16T16:46:59.491Z,100209.09890202337
2023-04-16T16:49:55.022Z,100208.38506824913
2023-04-16T16:52:53.580Z,100213.43751924616
2023-04-16T16:55:50.158Z,100219.0836691439
2023-04-16T16:58:48.699Z,100219.05308078296
2023-04-16T17:01:45.280Z,100215.96342006983
2023-04-16T17:04:40.885Z,100218.97634955833
2023-04-16T17:07:37.417Z,100225.18815570192
2023-04-16T17:10:32.955Z,100228.15032704754
2023-04-16T17:13:32.468Z,100235.19572127632
2023-04-16T17:16:29.041Z,100233.83321025647
2023-04-16T17:19:24.596Z,100228.71284267411
2023-04-16T17:22:21.162Z,100226.40424375374
2023-04-16T17:25:17.716Z,100225.41464408059
2023-04-16T17:28:13.259Z,100213.58939092224
2023-04-16T17:31:10.821Z,100216.59276106497
2023-04-16T17:34:07.393Z,100218.78910023274
2023-04-16T17:37:03.952Z,100220.81796704877
2023-04-16T17:40:01.541Z,100225.57346416979
2023-04-16T17:42:58.044Z,100237.08056810433
2023-04-16T17:45:54.675Z,100233.66994498247
2023-04-16T17:48:51.182Z,100241.51168445732
2023-04-16T17:51:48.739Z,100240.29333727281
2023-04-16T17:54:45.317Z,100232.98111338454
2023-04-16T17:57:41.861Z,100226.04990930844
2023-04-16T18:00:42.442Z,100226.69129598975
2023-04-16T18:03:42.133Z,100218.76976135961
2023-04-16T18:06:37.532Z,100214.5995003208
2023-04-16T18:09:34.043Z,100219.4646330928
2023-04-16T18:12:32.652Z,100215.48435884806
2023-04-16T18:15:29.258Z,100216.65618512782
2023-04-16T18:18:25.795Z,100212.54329929224
2023-04-16T18:21:22.308Z,100211.42669544683
2023-04-16T18:24:18.906Z,100222.53725650774
2023-04-16T18:27:14.450Z,100220.09177296447
2023-04-16T18:30:19.984Z,100216.18923728229
2023-04-16T18:36:14.103Z,100216.31843005892
2023-04-16T18:39:10.636Z,100214.54920653549
2023-04-16T18:42:06.227Z,100216.43601130867
2023-04-16T18:45:01.748Z,100215.32467759994
2023-04-16T18:47:58.344Z,100211.98354329004
2023-04-16T18:50:54.879Z,100214.51906030894
2023-04-16T18:53:51.432Z,100206.91225729111
2023-04-16T18:56:46.997Z,100201.69184272624
2023-04-16T18:59:43.517Z,100202.45764032239
2023-04-16T19:02:41.212Z,100198.59574661277
2023-04-16T19:05:39.677Z,100187.45233550802
2023-04-16T19:08:36.198Z,100190.0664008273
2023-04-16T19:11:32.778Z,100183.95383411109
2023-04-16T19:14:29.353Z,100184.47490705155
2023-04-16T19:17:26.945Z,100185.888466707
2023-04-16T19:20:23.450Z,100185.69023666691
2023-04-16T19:23:18.993Z,100187.26057769531
2023-04-16T19:26:15.573Z,100188.62723015549
2023-04-16T19:29:11.367Z,100183.0366301979
2023-04-16T19:32:07.776Z,100187.18091890289
2023-04-16T19:35:04.252Z,100179.25972775111
2023-04-16T19:38:00.870Z,100176.44640389299
2023-04-16T19:40:56.361Z,100172.34298376973
2023-04-16T19:43:53.955Z,100169.76321549897
2023-04-16T19:46:49.527Z,100163.04329032211
2023-04-16T19:49:46.054Z,100160.70464676595
2023-04-16T19:52:41.614Z,100164.80144837845
2023-04-16T19:55:43.188Z,100163.78726294018
2023-04-16T19:58:38.711Z,100161.87411754782
2023-04-16T20:01:39.336Z,100163.72127029675
2023-04-16T20:04:35.821Z,100160.32815807787
2023-04-16T20:07:38.387Z,100153.2007758792
2023-04-16T20:10:40.937Z,100153.22754939839
2023-04-16T20:13:38.717Z,100152.51030549861
2023-04-16T20:16:38.063Z,100158.93607200775
2023-04-16T20:19:37.610Z,100152.77340954331
2023-04-16T20:22:44.433Z,100157.21816945248
2023-04-16T20:25:41.678Z,100166.9640530549
2023-04-16T20:28:39.200Z,100158.75658737228
2023-04-16T20:31:35.109Z,100165.04209995741
2023-04-16T20:34:31.318Z,100163.67738782916
2023-04-16T20:37:28.896Z,100163.63888462711
2023-04-16T20:40:30.497Z,100167.63496092058
2023-04-16T20:43:29.069Z,100168.9760116795
2023-04-16T20:46:25.583Z,100171.35557640031
2023-04-16T20:49:23.119Z,100179.37879062751
2023-04-16T20:52:19.722Z,100178.95070760167
2023-04-16T20:55:17.221Z,100180.1707656023
2023-04-16T20:58:12.802Z,100175.50303046219
2023-04-16T21:01:08.413Z,100175.98447345014
2023-04-16T21:04:09.091Z,100178.89165677753
2023-04-16T21:10:20.000Z,100177.67475363631
2023-04-16T21:13:16.590Z,100175.4244616206
2023-04-16T21:16:15.117Z,100172.96760742205
2023-04-16T21:19:11.990Z,100175.7880062316
2023-04-16T21:22:13.197Z,100173.37057261258
2023-04-16T21:25:13.772Z,100171.9262165375
2023-04-16T21:28:10.275Z,100174.43746510566
2023-04-16T21:31:06.837Z,100167.19284538721
2023-04-16T21:34:04.406Z,100171.38131747615
2023-04-16T21:37:00.937Z,100174.51514518548
2023-04-16T21:40:02.530Z,100177.8191283918
2023-04-16T21:43:01.080Z,100173.6308592846
2023-04-16T21:45:58.662Z,100170.44240232364
2023-04-16T21:48:55.201Z,100171.49778417594
2023-04-16T21:52:06.631Z,100170.53589079189
2023-04-16T21:55:09.269Z,100166.0985980649
2023-04-16T21:58:06.813Z,100167.71239752352
2023-04-16T22:01:03.364Z,100156.9501120197
2023-04-16T22:04:03.995Z,100162.2929603285
2023-04-16T22:07:02.500Z,100158.46754379793
2023-04-16T22:09:58.033Z,100161.15793441866
2023-04-16T22:12:54.576Z,100156.82807778419
2023-04-16T22:15:51.150Z,100154.88278001294
2023-04-16T22:18:47.703Z,100152.12778479715
2023-04-16T22:21:43.251Z,100152.89896559657
2023-04-16T22:24:38.796Z,100153.97057890361
2023-04-16T22:27:35.385Z,100153.46045356058
2023-04-16T22:30:30.930Z,100154.05373437279
2023-04-16T22:33:28.499Z,100151.36555256945
2023-04-16T22:36:24.043Z,100159.09576765377
2023-04-16T22:39:22.635Z,100159.24271000303
2023-04-16T22:42:18.224Z,100159.61116149313
2023-04-16T22:45:16.756Z,100150.07686055869
2023-04-16T22:48:13.318Z,100147.60583470116
2023-04-16T22:51:08.844Z,100149.77840575109
2023-04-16T22:54:04.450Z,100150.07373786338
2023-04-16T22:57:01.987Z,100143.89077582647
2023-04-16T22:59:58.526Z,100141.45696481093
2023-04-16T23:02:55.212Z,100139.39412040656
2023-04-16T23:05:52.699Z,100147.09081681234
2023-04-16T23:08:48.201Z,100144.6957318884
2023-04-16T23:11:43.759Z,100147.53264683225
2023-04-16T23:14:45.330Z,100145.57934799387
2023-04-16T23:20:50.411Z,100143.47965518382
2023-04-16T23:23:45.926Z,100142.7128654503
2023-04-16T23:26:41.547Z,100140.13553976276
2023-04-16T23:29:38.118Z,100139.03042028766
2023-04-16T23:32:33.657Z,100142.4550887083
2023-04-16T23:35:30.208Z,100143.2973082704
2023-04-16T23:38:26.769Z,100136.03560746835
2023-04-16T23:41:23.363Z,100135.93801007881
2023-04-16T23:44:19.867Z,100134.97622236736
2023-04-16T23:47:16.458Z,100132.05993520375
2023-04-16T23:50:12.013Z,100134.48509334611
2023-04-16T23:53:07.576Z,100127.08390998852
2023-04-16T23:56:03.129Z,100129.40024305774
2023-04-16T23:58:58.699Z,100131.89514100752
